createdAt,value
2023-03-29T00:00:15.074Z,-2.10
2023-03-29T00:02:49.119Z,-2.12
2023-03-29T00:05:19.498Z,-2.15
2023-03-29T00:07:47.656Z,-2.17
2023-03-29T00:10:16.075Z,-2.19
2023-03-29T00:12:44.218Z,-2.20
2023-03-29T00:15:12.694Z,-2.20
2023-03-29T00:17:42.177Z,-2.22
2023-03-29T00:20:10.923Z,-2.22
2023-03-29T00:22:44.143Z,-2.22
2023-03-29T00:25:12.692Z,-2.20
2023-03-29T00:27:41.007Z,-2.21
2023-03-29T00:30:10.680Z,-2.19
2023-03-29T00:32:39.291Z,-2.21
2023-03-29T00:35:07.852Z,-2.22
2023-03-29T00:37:38.376Z,-2.23
2023-03-29T00:40:09.670Z,-2.23
2023-03-29T00:42:38.124Z,-2.23
2023-03-29T00:45:12.461Z,-2.22
2023-03-29T00:47:47.540Z,-2.23
2023-03-29T00:50:22.606Z,-2.31
2023-03-29T00:53:01.016Z,-2.41
2023-03-29T00:55:43.021Z,-2.42
2023-03-29T00:58:13.218Z,-2.42
2023-03-29T01:00:47.474Z,-2.39
2023-03-29T01:03:24.748Z,-2.34
2023-03-29T01:06:02.635Z,-2.35
2023-03-29T01:08:36.272Z,-2.32
2023-03-29T01:11:25.107Z,-2.29
2023-03-29T01:14:03.756Z,-2.26
2023-03-29T01:16:33.679Z,-2.26
2023-03-29T01:19:02.558Z,-2.25
2023-03-29T01:21:33.450Z,-2.24
2023-03-29T01:24:42.249Z,-2.21
2023-03-29T01:27:33.199Z,-2.23
2023-03-29T01:30:12.289Z,-2.28
2023-03-29T01:32:45.460Z,-2.29
2023-03-29T01:35:16.417Z,-2.29
2023-03-29T01:37:51.578Z,-2.30
2023-03-29T01:40:19.973Z,-2.32
2023-03-29T01:42:51.530Z,-2.36
2023-03-29T01:45:28.511Z,-2.39
2023-03-29T01:48:38.278Z,-2.42
2023-03-29T01:51:14.590Z,-2.43
2023-03-29T01:54:04.933Z,-2.45
2023-03-29T01:56:38.742Z,-2.43
2023-03-29T01:59:28.444Z,-2.43
2023-03-29T02:02:00.258Z,-2.42
2023-03-29T02:04:34.747Z,-2.43
2023-03-29T02:07:04.656Z,-2.43
2023-03-29T02:09:32.874Z,-2.43
2023-03-29T02:12:05.961Z,-2.44
2023-03-29T02:14:33.949Z,-2.44
2023-03-29T02:17:19.679Z,-2.44
2023-03-29T02:19:51.696Z,-2.44
2023-03-29T02:22:24.059Z,-2.47
2023-03-29T02:24:53.043Z,-2.49
2023-03-29T02:27:21.894Z,-2.50
2023-03-29T02:29:51.198Z,-2.52
2023-03-29T02:32:30.418Z,-2.57
2023-03-29T02:35:01.701Z,-2.59
2023-03-29T02:37:30.466Z,-2.61
2023-03-29T02:39:58.984Z,-2.62
2023-03-29T02:42:26.951Z,-2.66
2023-03-29T02:45:02.300Z,-2.67
2023-03-29T02:47:33.594Z,-2.66
2023-03-29T02:50:01.601Z,-2.63
2023-03-29T02:52:34.298Z,-2.62
2023-03-29T02:55:03.513Z,-2.60
2023-03-29T02:57:35.764Z,-2.58
2023-03-29T03:00:05.420Z,-2.57
2023-03-29T03:02:35.634Z,-2.57
2023-03-29T03:05:08.333Z,-2.56
2023-03-29T03:07:37.424Z,-2.54
2023-03-29T03:10:07.914Z,-2.54
2023-03-29T03:12:39.255Z,-2.54
2023-03-29T03:15:08.356Z,-2.53
2023-03-29T03:17:40.240Z,-2.54
2023-03-29T03:20:13.123Z,-2.55
2023-03-29T03:22:48.967Z,-2.53
2023-03-29T03:25:21.340Z,-2.51
2023-03-29T03:27:50.438Z,-2.52
2023-03-29T03:30:21.068Z,-2.52
2023-03-29T03:32:58.276Z,-2.53
2023-03-29T03:35:46.488Z,-2.56
2023-03-29T03:38:20.222Z,-2.57
2023-03-29T03:40:56.282Z,-2.57
2023-03-29T03:43:25.189Z,-2.55
2023-03-29T03:45:53.942Z,-2.54
2023-03-29T03:48:24.684Z,-2.55
2023-03-29T03:51:13.299Z,-2.55
2023-03-29T03:53:41.695Z,-2.55
2023-03-29T03:56:16.433Z,-2.53
2023-03-29T03:59:05.349Z,-2.51
2023-03-29T04:01:43.937Z,-2.50
2023-03-29T04:04:19.790Z,-2.49
2023-03-29T04:07:13.261Z,-2.47
2023-03-29T04:09:56.704Z,-2.45
2023-03-29T04:12:45.067Z,-2.45
2023-03-29T04:15:17.981Z,-2.44
2023-03-29T04:17:56.798Z,-2.42
2023-03-29T04:20:28.447Z,-2.40
2023-03-29T04:22:56.917Z,-2.39
2023-03-29T04:25:26.273Z,-2.37
2023-03-29T04:28:14.320Z,-2.34
2023-03-29T04:31:05.463Z,-2.32
2023-03-29T04:33:41.043Z,-2.33
2023-03-29T04:36:10.653Z,-2.33
2023-03-29T04:38:43.359Z,-2.29
2023-03-29T04:41:15.363Z,-2.27
2023-03-29T04:43:56.249Z,-2.27
2023-03-29T04:46:26.886Z,-2.25
2023-03-29T04:49:03.727Z,-2.23
2023-03-29T04:51:37.220Z,-2.20
2023-03-29T04:54:07.673Z,-2.18
2023-03-29T04:56:54.751Z,-2.17
2023-03-29T04:59:37.015Z,-2.17
2023-03-29T05:02:12.435Z,-2.17
2023-03-29T05:04:42.835Z,-2.16
2023-03-29T05:07:19.533Z,-2.14
2023-03-29T05:09:49.488Z,-2.13
2023-03-29T05:12:17.864Z,-2.11
2023-03-29T05:14:57.660Z,-2.10
2023-03-29T05:17:27.494Z,-2.08
2023-03-29T05:19:58.128Z,-2.06
2023-03-29T05:22:26.478Z,-2.05
2023-03-29T05:24:54.743Z,-2.03
2023-03-29T05:27:24.114Z,-2.00
2023-03-29T05:30:02.744Z,-1.97
2023-03-29T05:32:54.700Z,-1.94
2023-03-29T05:35:29.362Z,-1.96
2023-03-29T05:37:58.453Z,-1.97
2023-03-29T05:40:27.106Z,-1.94
2023-03-29T05:43:27.719Z,-1.91
2023-03-29T05:45:56.463Z,-1.90
2023-03-29T05:48:25.894Z,-1.90
2023-03-29T05:50:55.064Z,-1.93
2023-03-29T05:53:24.496Z,-1.95
2023-03-29T05:55:52.764Z,-1.96
2023-03-29T05:58:21.929Z,-1.94
2023-03-29T06:00:50.291Z,-1.95
2023-03-29T06:03:38.659Z,-2.00
2023-03-29T06:06:07.292Z,-2.04
2023-03-29T06:08:36.185Z,-2.06
2023-03-29T06:11:10.962Z,-2.06
2023-03-29T06:14:04.814Z,-2.03
2023-03-29T06:16:34.025Z,-2.00
2023-03-29T06:19:02.558Z,-1.96
2023-03-29T06:21:32.030Z,-1.94
2023-03-29T06:24:01.564Z,-1.91
2023-03-29T06:26:35.607Z,-1.87
2023-03-29T06:29:04.362Z,-1.83
2023-03-29T06:31:32.501Z,-1.78
2023-03-29T06:34:01.603Z,-1.73
2023-03-29T06:36:51.161Z,-1.69
2023-03-29T06:39:21.373Z,-1.67
2023-03-29T06:42:12.954Z,-1.63
2023-03-29T06:45:13.476Z,-1.57
2023-03-29T06:47:42.125Z,-1.62
2023-03-29T06:50:11.878Z,-1.62
2023-03-29T06:53:00.498Z,-1.59
2023-03-29T06:55:28.842Z,-1.50
2023-03-29T06:58:00.280Z,-1.43
2023-03-29T07:00:30.967Z,-1.36
2023-03-29T07:03:20.137Z,-1.29
2023-03-29T07:05:52.252Z,-1.35
2023-03-29T07:08:22.578Z,-1.35
2023-03-29T07:10:59.974Z,-1.33
2023-03-29T07:13:30.487Z,-1.37
2023-03-29T07:15:59.331Z,-1.36
2023-03-29T07:18:47.357Z,-1.37
2023-03-29T07:21:24.375Z,-1.38
2023-03-29T07:23:52.564Z,-1.35
2023-03-29T07:26:28.687Z,-1.29
2023-03-29T07:28:58.938Z,-1.22
2023-03-29T07:31:29.546Z,-1.14
2023-03-29T07:34:11.240Z,-1.05
2023-03-29T07:36:39.704Z,-1.01
2023-03-29T07:39:13.121Z,-0.96
2023-03-29T07:41:44.704Z,-0.99
2023-03-29T07:44:14.857Z,-1.00
2023-03-29T07:46:44.653Z,-0.94
2023-03-29T07:49:12.867Z,-0.91
2023-03-29T07:51:40.928Z,-0.90
2023-03-29T07:54:12.910Z,-0.89
2023-03-29T07:57:04.845Z,-0.85
2023-03-29T07:59:41.434Z,-0.76
2023-03-29T08:02:14.648Z,-0.64
2023-03-29T08:04:46.225Z,-0.58
2023-03-29T08:07:21.541Z,-0.55
2023-03-29T08:10:00.502Z,-0.50
2023-03-29T08:13:03.808Z,-0.45
2023-03-29T08:15:42.197Z,-0.42
2023-03-29T08:18:17.340Z,-0.50
2023-03-29T08:20:51.024Z,-0.46
2023-03-29T08:23:19.396Z,-0.47
2023-03-29T08:26:15.952Z,-0.48
2023-03-29T08:28:45.691Z,-0.43
2023-03-29T08:31:13.930Z,-0.37
2023-03-29T08:33:44.581Z,-0.29
2023-03-29T08:36:31.410Z,-0.24
2023-03-29T08:39:05.914Z,-0.20
2023-03-29T08:44:33.967Z,-0.01
2023-03-29T08:47:23.251Z,0.07
2023-03-29T08:49:53.505Z,0.15
2023-03-29T08:52:40.088Z,0.21
2023-03-29T08:55:40.240Z,0.19
2023-03-29T08:58:41.618Z,0.17
2023-03-29T09:01:11.497Z,0.16
2023-03-29T09:04:11.449Z,0.20
2023-03-29T09:06:52.991Z,0.23
2023-03-29T09:09:34.134Z,0.29
2023-03-29T09:12:50.381Z,0.42
2023-03-29T09:15:24.606Z,0.50
2023-03-29T09:18:24.527Z,0.50
2023-03-29T09:21:01.522Z,0.56
2023-03-29T09:23:36.144Z,0.61
2023-03-29T09:26:41.115Z,0.66
2023-03-29T09:29:50.279Z,0.73
2023-03-29T09:32:24.397Z,0.83
2023-03-29T09:35:18.863Z,0.94
2023-03-29T09:37:48.067Z,1.05
2023-03-29T09:40:19.694Z,1.17
2023-03-29T09:42:58.884Z,1.35
2023-03-29T09:45:27.991Z,1.47
2023-03-29T09:48:03.442Z,1.56
2023-03-29T09:50:43.413Z,1.65
2023-03-29T09:53:12.026Z,1.76
2023-03-29T09:55:47.169Z,1.88
2023-03-29T09:58:36.158Z,1.96
2023-03-29T10:01:08.750Z,2.04
2023-03-29T10:03:39.364Z,2.16
2023-03-29T10:06:18.756Z,2.28
2023-03-29T10:08:55.060Z,2.37
2023-03-29T10:11:30.497Z,2.41
2023-03-29T10:14:04.507Z,2.44
2023-03-29T10:16:39.118Z,2.53
2023-03-29T10:19:34.967Z,2.61
2023-03-29T10:22:16.881Z,2.63
2023-03-29T10:24:49.948Z,2.65
2023-03-29T10:27:20.902Z,2.68
2023-03-29T10:29:50.907Z,2.72
2023-03-29T10:32:23.084Z,2.77
2023-03-29T10:34:52.125Z,2.81
2023-03-29T10:37:21.310Z,2.83
2023-03-29T10:39:49.498Z,2.84
2023-03-29T10:42:19.634Z,2.88
2023-03-29T10:44:55.495Z,2.88
2023-03-29T10:47:23.785Z,2.94
2023-03-29T10:49:56.708Z,3.06
2023-03-29T10:52:25.308Z,3.08
2023-03-29T10:54:54.958Z,3.14
2023-03-29T10:57:49.823Z,3.16
2023-03-29T11:00:24.348Z,3.15
2023-03-29T11:03:08.842Z,3.18
2023-03-29T11:06:08.299Z,3.26
2023-03-29T11:08:58.599Z,3.38
2023-03-29T11:11:33.019Z,3.46
2023-03-29T11:14:28.010Z,3.59
2023-03-29T11:17:07.195Z,3.81
2023-03-29T11:19:56.686Z,4.05
2023-03-29T11:22:56.363Z,4.24
2023-03-29T11:25:31.189Z,4.21
2023-03-29T11:28:12.147Z,4.16
2023-03-29T11:31:16.281Z,4.21
2023-03-29T11:34:03.175Z,4.25
2023-03-29T11:36:35.723Z,4.31
2023-03-29T11:39:09.656Z,4.43
2023-03-29T11:41:39.864Z,4.57
2023-03-29T11:44:15.228Z,4.68
2023-03-29T11:46:46.882Z,4.81
2023-03-29T11:49:22.433Z,4.78
2023-03-29T11:52:11.799Z,4.65
2023-03-29T11:54:48.096Z,4.55
2023-03-29T11:57:24.698Z,4.56
2023-03-29T11:59:58.619Z,4.66
2023-03-29T12:02:48.217Z,4.84
2023-03-29T12:05:21.122Z,5.06
2023-03-29T12:08:02.364Z,5.26
2023-03-29T12:10:42.968Z,5.47
2023-03-29T12:13:32.556Z,5.45
2023-03-29T12:16:20.122Z,5.35
2023-03-29T12:18:49.884Z,5.40
2023-03-29T12:21:22.951Z,5.57
2023-03-29T12:23:52.945Z,5.87
2023-03-29T12:26:43.076Z,6.30
2023-03-29T12:29:49.018Z,7.30
2023-03-29T12:32:26.596Z,8.43
2023-03-29T12:35:34.378Z,8.02
2023-03-29T12:38:23.044Z,6.85
2023-03-29T12:41:19.547Z,5.95
2023-03-29T12:44:10.242Z,5.38
2023-03-29T12:46:52.127Z,5.04
2023-03-29T12:49:32.082Z,4.83
2023-03-29T12:52:00.625Z,4.65
2023-03-29T12:54:31.998Z,4.54
2023-03-29T12:57:01.291Z,4.45
2023-03-29T12:59:40.695Z,4.34
2023-03-29T13:02:15.339Z,4.21
2023-03-29T13:04:47.053Z,4.10
2023-03-29T13:07:27.644Z,3.99
2023-03-29T13:10:04.029Z,3.89
2023-03-29T13:12:35.381Z,3.80
2023-03-29T13:15:18.361Z,3.74
2023-03-29T13:18:03.569Z,3.72
2023-03-29T13:20:46.166Z,3.74
2023-03-29T13:23:33.462Z,3.80
2023-03-29T13:26:19.122Z,3.89
2023-03-29T13:29:05.742Z,3.98
2023-03-29T13:31:40.520Z,4.04
2023-03-29T13:34:43.047Z,4.05
2023-03-29T13:37:38.022Z,4.04
2023-03-29T13:40:32.127Z,4.02
2023-03-29T13:43:19.293Z,4.04
2023-03-29T13:45:59.357Z,4.09
2023-03-29T13:48:30.131Z,4.11
2023-03-29T13:51:05.221Z,4.11
2023-03-29T13:53:37.442Z,4.08
2023-03-29T13:56:06.589Z,4.12
2023-03-29T13:58:52.659Z,4.15
2023-03-29T14:02:00.754Z,4.20
2023-03-29T14:04:33.311Z,4.23
2023-03-29T14:07:01.324Z,4.23
2023-03-29T14:09:30.540Z,4.25
2023-03-29T14:12:01.670Z,4.25
2023-03-29T14:14:30.781Z,4.32
2023-03-29T14:17:01.616Z,4.40
2023-03-29T14:19:35.579Z,4.39
2023-03-29T14:22:09.268Z,4.36
2023-03-29T14:24:40.494Z,4.36
2023-03-29T14:27:11.469Z,4.41
2023-03-29T14:29:39.936Z,4.43
2023-03-29T14:32:10.651Z,4.44
2023-03-29T14:34:39.778Z,4.52
2023-03-29T14:37:10.733Z,4.59
2023-03-29T14:39:38.834Z,4.60
2023-03-29T14:42:12.896Z,4.63
2023-03-29T14:44:41.484Z,4.69
2023-03-29T14:47:09.456Z,4.78
2023-03-29T14:49:39.056Z,4.85
2023-03-29T14:52:07.307Z,4.93
2023-03-29T14:54:36.953Z,5.07
2023-03-29T14:57:09.034Z,5.35
2023-03-29T14:59:38.599Z,5.72
2023-03-29T15:02:23.107Z,6.13
2023-03-29T15:04:57.294Z,6.67
2023-03-29T15:07:27.134Z,7.48
2023-03-29T15:09:56.688Z,8.53
2023-03-29T15:12:24.607Z,9.47
2023-03-29T15:14:53.655Z,10.41
2023-03-29T15:17:28.076Z,11.38
2023-03-29T15:20:11.067Z,12.38
2023-03-29T15:23:13.210Z,12.66
2023-03-29T15:25:58.528Z,12.62
2023-03-29T15:28:34.048Z,12.70
2023-03-29T15:31:08.160Z,12.88
2023-03-29T15:33:38.650Z,12.93
2023-03-29T15:36:08.460Z,12.76
2023-03-29T15:41:10.938Z,12.79
2023-03-29T15:43:39.320Z,12.71
2023-03-29T15:46:07.747Z,12.64
2023-03-29T15:48:36.793Z,12.77
2023-03-29T15:51:07.014Z,13.00
2023-03-29T15:53:35.767Z,13.11
2023-03-29T15:56:05.644Z,12.81
2023-03-29T15:58:34.917Z,12.31
2023-03-29T16:01:11.542Z,11.99
2023-03-29T16:03:40.501Z,11.92
2023-03-29T16:06:12.020Z,11.94
2023-03-29T16:08:42.087Z,11.95
2023-03-29T16:11:10.406Z,11.81
2023-03-29T16:13:40.140Z,11.56
2023-03-29T16:16:11.083Z,11.05
2023-03-29T16:18:39.353Z,10.47
2023-03-29T16:21:13.966Z,9.87
2023-03-29T16:23:43.019Z,9.16
2023-03-29T16:26:16.470Z,8.41
2023-03-29T16:28:46.386Z,7.79
2023-03-29T16:31:14.653Z,7.24
2023-03-29T16:33:44.865Z,6.74
2023-03-29T16:36:13.235Z,6.34
2023-03-29T16:38:41.573Z,6.00
2023-03-29T16:41:15.848Z,5.70
2023-03-29T16:43:45.302Z,5.38
2023-03-29T16:46:14.087Z,5.15
2023-03-29T16:48:42.339Z,4.98
2023-03-29T16:51:11.033Z,4.81
2023-03-29T16:53:40.641Z,4.66
2023-03-29T16:56:09.317Z,4.52
2023-03-29T16:58:41.706Z,4.40
2023-03-29T17:01:14.166Z,4.30
2023-03-29T17:03:42.478Z,4.22
2023-03-29T17:06:11.500Z,4.15
2023-03-29T17:08:41.605Z,4.08
2023-03-29T17:11:09.881Z,4.02
2023-03-29T17:13:40.883Z,3.98
2023-03-29T17:16:09.406Z,3.92
2023-03-29T17:18:38.854Z,3.86
2023-03-29T17:21:07.422Z,3.80
2023-03-29T17:23:35.774Z,3.76
2023-03-29T17:26:05.238Z,3.72
2023-03-29T17:28:34.641Z,3.66
2023-03-29T17:31:08.053Z,3.64
2023-03-29T17:33:37.498Z,3.60
2023-03-29T17:36:07.196Z,3.52
2023-03-29T17:38:36.013Z,3.45
2023-03-29T17:41:04.781Z,3.39
2023-03-29T17:43:37.282Z,3.34
2023-03-29T17:46:06.561Z,3.30
2023-03-29T17:48:34.809Z,3.27
2023-03-29T17:51:03.000Z,3.23
2023-03-29T17:53:31.494Z,3.21
2023-03-29T17:55:59.503Z,3.18
2023-03-29T17:58:27.944Z,3.14
2023-03-29T18:00:56.492Z,3.10
2023-03-29T18:03:27.331Z,3.06
2023-03-29T18:05:57.113Z,3.02
2023-03-29T18:08:25.089Z,2.96
2023-03-29T18:10:53.493Z,2.90
2023-03-29T18:13:25.606Z,2.85
2023-03-29T18:15:56.838Z,2.78
2023-03-29T18:18:25.801Z,2.71
2023-03-29T18:20:54.038Z,2.66
2023-03-29T18:23:22.282Z,2.62
2023-03-29T18:25:51.122Z,2.58
2023-03-29T18:28:20.018Z,2.53
2023-03-29T18:30:51.846Z,2.47
2023-03-29T18:33:21.135Z,2.43
2023-03-29T18:35:51.756Z,2.39
2023-03-29T18:38:21.401Z,2.36
2023-03-29T18:40:50.192Z,2.36
2023-03-29T18:43:18.611Z,2.33
2023-03-29T18:45:47.617Z,2.28
2023-03-29T18:48:15.973Z,2.25
2023-03-29T18:50:47.329Z,2.23
2023-03-29T18:53:16.981Z,2.20
2023-03-29T18:55:46.258Z,2.18
2023-03-29T18:58:16.186Z,2.17
2023-03-29T19:00:45.521Z,2.16
2023-03-29T19:03:17.120Z,2.15
2023-03-29T19:05:45.427Z,2.14
2023-03-29T19:08:17.462Z,2.12
2023-03-29T19:10:47.240Z,2.12
2023-03-29T19:13:15.463Z,2.10
2023-03-29T19:15:47.611Z,2.08
2023-03-29T19:18:16.344Z,2.07
2023-03-29T19:20:44.365Z,2.06
2023-03-29T19:23:12.549Z,2.06
2023-03-29T19:25:40.772Z,2.05
2023-03-29T19:28:09.489Z,2.04
2023-03-29T19:30:37.448Z,2.04
2023-03-29T19:33:06.145Z,2.03
2023-03-29T19:35:35.199Z,2.03
2023-03-29T19:38:03.562Z,2.05
2023-03-29T19:40:32.004Z,2.05
2023-03-29T19:43:00.298Z,2.06
2023-03-29T19:45:30.100Z,2.06
2023-03-29T19:48:02.573Z,2.08
2023-03-29T19:50:32.926Z,2.08
2023-03-29T19:53:01.687Z,2.08
2023-03-29T19:55:29.963Z,2.08
2023-03-29T19:57:58.263Z,2.07
2023-03-29T20:00:26.163Z,2.06
2023-03-29T20:02:56.780Z,2.04
2023-03-29T20:05:25.513Z,2.03
2023-03-29T20:07:54.486Z,2.02
2023-03-29T20:10:22.889Z,2.00
2023-03-29T20:12:51.296Z,1.98
2023-03-29T20:15:19.371Z,1.96
2023-03-29T20:17:47.987Z,1.96
2023-03-29T20:20:16.229Z,1.95
2023-03-29T20:22:45.360Z,1.94
2023-03-29T20:25:14.049Z,1.94
2023-03-29T20:27:42.864Z,1.95
2023-03-29T20:30:11.676Z,1.99
2023-03-29T20:32:53.496Z,2.04
2023-03-29T20:35:22.029Z,2.09
2023-03-29T20:37:49.981Z,2.14
2023-03-29T20:40:18.256Z,2.17
2023-03-29T20:42:46.421Z,2.21
2023-03-29T20:45:18.714Z,2.25
2023-03-29T20:47:50.497Z,2.28
2023-03-29T20:50:20.181Z,2.29
2023-03-29T20:52:48.576Z,2.29
2023-03-29T20:55:22.253Z,2.29
2023-03-29T20:58:10.233Z,2.30
2023-03-29T21:01:21.934Z,2.29
2023-03-29T21:03:58.152Z,2.28
2023-03-29T21:06:26.818Z,2.27
2023-03-29T21:08:54.775Z,2.21
2023-03-29T21:11:26.816Z,2.10
2023-03-29T21:13:55.178Z,2.03
2023-03-29T21:16:25.304Z,1.97
2023-03-29T21:18:53.631Z,1.92
2023-03-29T21:21:22.834Z,1.87
2023-03-29T21:23:50.914Z,1.82
2023-03-29T21:26:19.666Z,1.75
2023-03-29T21:28:48.797Z,1.69
2023-03-29T21:31:17.404Z,1.64
2023-03-29T21:33:46.137Z,1.62
2023-03-29T21:36:14.658Z,1.58
2023-03-29T21:38:43.022Z,1.54
2023-03-29T21:41:12.238Z,1.53
2023-03-29T21:43:40.425Z,1.54
2023-03-29T21:46:08.559Z,1.54
2023-03-29T21:48:36.926Z,1.56
2023-03-29T21:51:06.517Z,1.58
2023-03-29T21:53:35.072Z,1.61
2023-03-29T21:56:03.346Z,1.63
2023-03-29T21:58:31.703Z,1.64
2023-03-29T22:00:59.961Z,1.63
2023-03-29T22:03:28.963Z,1.61
2023-03-29T22:06:00.054Z,1.60
2023-03-29T22:08:29.062Z,1.58
2023-03-29T22:10:57.625Z,1.54
2023-03-29T22:13:33.145Z,1.44
2023-03-29T22:16:03.812Z,1.36
2023-03-29T22:18:42.178Z,1.33
2023-03-29T22:21:14.555Z,1.30
2023-03-29T22:23:46.226Z,1.28
2023-03-29T22:26:15.055Z,1.26
2023-03-29T22:28:43.544Z,1.23
2023-03-29T22:31:14.295Z,1.20
2023-03-29T22:33:42.277Z,1.20
2023-03-29T22:36:16.880Z,1.18
2023-03-29T22:38:45.526Z,1.19
2023-03-29T22:41:14.062Z,1.24
2023-03-29T22:43:42.940Z,1.29
2023-03-29T22:46:13.267Z,1.35
2023-03-29T22:48:42.183Z,1.40
2023-03-29T22:51:10.663Z,1.44
2023-03-29T22:53:38.729Z,1.49
2023-03-29T22:56:07.904Z,1.54
2023-03-29T22:58:37.109Z,1.57
2023-03-29T23:01:06.090Z,1.61
2023-03-29T23:03:34.984Z,1.64
2023-03-29T23:06:04.556Z,1.66
2023-03-29T23:08:33.284Z,1.68
2023-03-29T23:11:03.997Z,1.70
2023-03-29T23:13:33.724Z,1.71
2023-03-29T23:16:03.738Z,1.74
2023-03-29T23:18:37.856Z,1.76
2023-03-29T23:21:08.890Z,1.77
2023-03-29T23:23:36.995Z,1.80
2023-03-29T23:26:08.563Z,1.78
2023-03-29T23:28:36.788Z,1.73
2023-03-29T23:31:14.019Z,1.74
2023-03-29T23:33:42.933Z,1.75
2023-03-29T23:36:15.930Z,1.74
2023-03-29T23:38:45.984Z,1.73
2023-03-29T23:41:14.375Z,1.71
2023-03-29T23:43:43.732Z,1.73
2023-03-29T23:46:15.306Z,1.73
2023-03-29T23:48:49.178Z,1.74
2023-03-29T23:51:18.901Z,1.75
2023-03-29T23:53:48.010Z,1.73
2023-03-29T23:56:21.671Z,1.73
2023-03-29T23:58:51.810Z,1.73
